Time;durP1;ratioP1;P1;durP2;ratioP2;P2;SDS_P1;SDS_P2;PMS_P1;PMS_P2;Temp;Humidity;BMP_temperature;BMP_pressure;BME280_temperature;BME280_humidity;BME280_pressure;Samples;Min_cycle;Max_cycle;Signal;HPM_P1;HPM_P2
2022/11/02 00:00:32;;;;;;;8.00;3.37;;;8.80;99.90;;;;;;4843081;29;20185;-86
2022/11/02 00:02:58;;;;;;;6.47;3.73;;;8.80;99.90;;;;;;4845733;29;20234;-86
2022/11/02 00:05:25;;;;;;;6.17;3.90;;;8.70;99.90;;;;;;4845636;29;20192;-86
2022/11/02 00:07:52;;;;;;;9.13;4.10;;;8.70;99.90;;;;;;4860665;29;20189;-86
2022/11/02 00:10:19;;;;;;;4.93;3.73;;;8.60;99.90;;;;;;4861017;29;20184;-86
2022/11/02 00:12:45;;;;;;;4.73;3.77;;;8.60;99.90;;;;;;4860988;29;20311;-85
2022/11/02 00:15:11;;;;;;;6.80;3.67;;;8.70;99.90;;;;;;4860897;29;20245;-85
2022/11/02 00:17:39;;;;;;;6.47;4.60;;;8.70;99.90;;;;;;4860583;29;20237;-86
2022/11/02 00:20:06;;;;;;;6.73;4.50;;;8.60;99.90;;;;;;4861091;29;20631;-86
2022/11/02 00:22:33;;;;;;;6.40;3.80;;;8.60;99.90;;;;;;4860763;29;20181;-86
2022/11/02 00:25:02;;;;;;;7.30;4.00;;;8.60;99.90;;;;;;4860736;29;20188;-86
2022/11/02 00:27:30;;;;;;;6.83;4.37;;;8.50;99.90;;;;;;4860389;29;20189;-86
2022/11/02 00:29:57;;;;;;;8.57;4.10;;;8.50;99.90;;;;;;4860761;29;20235;-86
2022/11/02 00:32:24;;;;;;;9.00;4.63;;;8.50;99.90;;;;;;4860657;29;20212;-85
2022/11/02 00:34:50;;;;;;;5.60;3.87;;;8.50;99.90;;;;;;4860413;29;20209;-86
2022/11/02 00:37:16;;;;;;;7.30;4.00;;;8.40;99.90;;;;;;4860246;29;20188;-86
2022/11/02 00:39:42;;;;;;;7.17;4.70;;;8.40;99.90;;;;;;4860547;29;20231;-85
2022/11/02 00:42:08;;;;;;;5.57;4.37;;;8.40;99.90;;;;;;4875860;29;20220;-85
2022/11/02 00:44:34;;;;;;;7.20;4.40;;;8.40;99.90;;;;;;4860362;29;20209;-85
2022/11/02 00:47:00;;;;;;;9.23;4.93;;;8.40;99.90;;;;;;4859970;29;20188;-85
2022/11/02 00:49:29;;;;;;;6.93;4.60;;;8.40;99.90;;;;;;4859869;29;20222;-85
2022/11/02 00:51:57;;;;;;;5.23;4.37;;;8.40;99.90;;;;;;4859634;29;20185;-86
2022/11/02 00:54:25;;;;;;;7.53;4.50;;;8.40;99.90;;;;;;4860172;29;20621;-85
2022/11/02 00:56:53;;;;;;;7.10;4.73;;;8.40;99.90;;;;;;4859984;29;20205;-86
2022/11/02 00:59:19;;;;;;;7.97;4.37;;;8.40;99.90;;;;;;4860020;29;20184;-85
2022/11/02 01:01:46;;;;;;;6.30;4.23;;;8.40;99.90;;;;;;4859512;29;20180;-85
2022/11/02 01:04:16;;;;;;;5.70;4.53;;;8.40;99.90;;;;;;4860245;29;20205;-85
2022/11/02 01:06:43;;;;;;;7.20;5.30;;;8.40;99.90;;;;;;4859809;29;20187;-86
2022/11/02 01:09:12;;;;;;;6.80;4.23;;;8.40;99.90;;;;;;4859970;29;20181;-86
2022/11/02 01:11:39;;;;;;;5.53;3.60;;;8.30;99.90;;;;;;4859939;29;20680;-86
2022/11/02 01:14:05;;;;;;;5.57;3.63;;;8.30;99.90;;;;;;4859721;29;20216;-85
2022/11/02 01:16:31;;;;;;;7.23;3.70;;;8.30;99.90;;;;;;4859269;29;20196;-85
2022/11/02 01:18:57;;;;;;;6.13;4.27;;;8.30;99.90;;;;;;4859616;29;20635;-85
2022/11/02 01:21:24;;;;;;;4.83;4.03;;;8.30;99.90;;;;;;4859850;29;20181;-85
2022/11/02 01:23:50;;;;;;;6.23;4.17;;;8.30;99.90;;;;;;4859487;29;20215;-85
2022/11/02 01:26:17;;;;;;;7.23;3.60;;;8.40;99.90;;;;;;4859838;29;20185;-85
2022/11/02 01:28:42;;;;;;;5.20;4.17;;;8.40;99.90;;;;;;4859267;29;20189;-85
2022/11/02 01:31:30;;;;;;;6.50;3.50;;;8.30;99.90;;;;;;4859530;29;20232;-85
2022/11/02 01:33:56;;;;;;;6.23;4.13;;;8.30;99.90;;;;;;4844026;29;20312;-85
2022/11/02 01:36:22;;;;;;;5.93;3.93;;;8.30;99.90;;;;;;4860422;29;20268;-86
2022/11/02 01:38:50;;;;;;;7.73;3.70;;;8.30;99.90;;;;;;4859693;29;20227;-85
2022/11/02 01:41:17;;;;;;;8.20;4.30;;;8.30;99.90;;;;;;4859920;29;20217;-85
2022/11/02 01:43:45;;;;;;;6.00;4.17;;;8.30;99.90;;;;;;4859264;29;20291;-85
2022/11/02 01:46:11;;;;;;;6.60;4.23;;;8.30;99.90;;;;;;4859328;29;20256;-85
2022/11/02 01:48:53;;;;;;;9.37;4.50;;;8.40;99.90;;;;;;4859400;29;20188;-85
2022/11/02 01:51:25;;;;;;;6.37;3.90;;;8.40;99.90;;;;;;4859505;29;20185;-85
2022/11/02 01:53:53;;;;;;;8.27;4.37;;;8.30;99.90;;;;;;4859231;29;20216;-85
2022/11/02 01:56:22;;;;;;;7.83;3.80;;;8.20;99.90;;;;;;4859491;29;20185;-85
2022/11/02 01:58:55;;;;;;;7.23;3.63;;;8.00;99.90;;;;;;4859163;29;20189;-85
2022/11/02 02:01:21;;;;;;;7.50;4.40;;;7.80;99.90;;;;;;4859207;29;20181;-85
2022/11/02 02:03:49;;;;;;;8.93;3.60;;;7.70;99.90;;;;;;4858935;29;20231;-85
2022/11/02 02:06:16;;;;;;;6.73;4.30;;;7.70;99.90;;;;;;4841986;29;20260;-85
2022/11/02 02:08:48;;;;;;;6.90;4.30;;;7.70;99.90;;;;;;4825550;29;20231;-85
2022/11/02 02:11:31;;;;;;;8.40;4.00;;;7.60;99.90;;;;;;4825570;29;20553;-85
2022/11/02 02:14:17;;;;;;;7.13;4.93;;;7.50;99.90;;;;;;4828591;29;20332;-85
2022/11/02 02:17:10;;;;;;;7.73;3.97;;;7.40;99.90;;;;;;4843887;29;20235;-85
2022/11/02 02:19:51;;;;;;;8.57;4.63;;;7.40;99.90;;;;;;4844033;29;20252;-85
2022/11/02 02:22:39;;;;;;;7.30;4.67;;;7.30;99.90;;;;;;4843845;29;20228;-85
2022/11/02 02:25:26;;;;;;;6.30;4.10;;;7.30;99.90;;;;;;4859217;29;20215;-85
2022/11/02 02:28:01;;;;;;;7.87;4.17;;;7.40;99.90;;;;;;4843362;29;20244;-85
2022/11/02 02:30:32;;;;;;;5.80;3.80;;;7.50;99.90;;;;;;4843821;29;20187;-85
2022/11/02 02:33:13;;;;;;;7.97;4.03;;;7.50;99.90;;;;;;4859000;29;20224;-85
2022/11/02 02:35:46;;;;;;;6.07;4.00;;;7.60;99.90;;;;;;4858880;29;20264;-85
2022/11/02 02:38:44;;;;;;;7.30;4.03;;;7.60;99.90;;;;;;4858984;29;20218;-85
2022/11/02 02:41:12;;;;;;;7.03;3.93;;;7.60;99.90;;;;;;4842511;29;20200;-85
2022/11/02 02:43:48;;;;;;;4.63;3.40;;;7.70;99.90;;;;;;4858742;29;20679;-85
2022/11/02 02:46:29;;;;;;;8.37;3.97;;;7.70;99.90;;;;;;4858978;29;20173;-85
2022/11/02 02:48:57;;;;;;;5.70;4.30;;;7.80;99.90;;;;;;4858881;29;20204;-85
2022/11/02 02:51:29;;;;;;;7.67;4.53;;;7.80;99.90;;;;;;4858742;29;20226;-85
2022/11/02 02:54:15;;;;;;;6.57;4.40;;;7.80;99.90;;;;;;4858255;29;20236;-85
2022/11/02 02:56:51;;;;;;;5.50;4.50;;;7.80;99.90;;;;;;4858596;29;20179;-85
2022/11/02 02:59:31;;;;;;;5.70;4.60;;;7.80;99.90;;;;;;4858820;29;20216;-85
2022/11/02 03:01:59;;;;;;;5.63;4.37;;;7.80;99.90;;;;;;4858966;29;20180;-85
2022/11/02 03:04:25;;;;;;;8.13;4.57;;;7.80;99.90;;;;;;4855466;29;20217;-85
2022/11/02 03:06:53;;;;;;;4.97;4.37;;;7.70;99.90;;;;;;4824891;29;20190;-85
2022/11/02 03:09:33;;;;;;;4.70;4.13;;;7.80;99.90;;;;;;4825009;29;20198;-85
2022/11/02 03:12:06;;;;;;;5.73;3.93;;;7.80;99.90;;;;;;4825570;29;20272;-85
2022/11/02 03:14:48;;;;;;;5.43;3.97;;;7.80;99.90;;;;;;4858821;29;20205;-85
2022/11/02 03:17:23;;;;;;;4.10;3.60;;;7.70;99.90;;;;;;4843353;29;20172;-85
2022/11/02 03:19:57;;;;;;;6.33;4.03;;;7.70;99.90;;;;;;4852327;29;20175;-85
2022/11/02 03:22:43;;;;;;;5.87;4.37;;;7.70;99.90;;;;;;4862250;29;20188;-85
2022/11/02 03:25:25;;;;;;;4.50;3.90;;;7.70;99.90;;;;;;4862078;29;20278;-85
2022/11/02 03:28:36;;;;;;;5.93;3.90;;;7.70;99.90;;;;;;4861910;29;20180;-85
2022/11/02 03:31:11;;;;;;;6.40;3.67;;;7.70;99.90;;;;;;4845344;29;20192;-85
2022/11/02 03:33:50;;;;;;;7.30;3.80;;;7.60;99.90;;;;;;4860631;29;20247;-85
2022/11/02 03:36:22;;;;;;;12.33;4.30;;;7.50;99.90;;;;;;4861129;29;20189;-85
2022/11/02 03:39:00;;;;;;;7.43;3.90;;;7.40;99.90;;;;;;4861448;29;20279;-85
2022/11/02 03:41:28;;;;;;;8.13;3.87;;;7.50;99.90;;;;;;4861608;29;20187;-85
2022/11/02 03:44:07;;;;;;;7.53;4.17;;;7.40;99.90;;;;;;4846212;29;20204;-85
2022/11/02 03:46:37;;;;;;;5.37;4.50;;;7.50;99.90;;;;;;4846062;29;20244;-85
2022/11/02 03:49:09;;;;;;;7.60;4.10;;;7.40;99.90;;;;;;4846028;29;20184;-85
2022/11/02 03:51:40;;;;;;;6.67;3.90;;;7.40;99.90;;;;;;4861653;29;20199;-85
2022/11/02 03:54:12;;;;;;;5.33;3.90;;;7.30;99.90;;;;;;4845904;29;20299;-85
2022/11/02 03:56:50;;;;;;;9.27;5.10;;;7.30;99.90;;;;;;4845947;29;20195;-86
2022/11/02 03:59:16;;;;;;;8.53;4.67;;;7.40;99.90;;;;;;4861478;29;20184;-85
2022/11/02 04:01:46;;;;;;;8.60;5.13;;;7.40;99.90;;;;;;4845863;29;20208;-85
2022/11/02 04:04:13;;;;;;;7.53;4.60;;;7.40;99.90;;;;;;4845720;29;20211;-85
2022/11/02 04:06:41;;;;;;;7.80;4.57;;;7.50;99.90;;;;;;4842311;29;20184;-86
2022/11/02 04:09:08;;;;;;;6.20;3.97;;;7.60;99.90;;;;;;4858022;29;20184;-85
2022/11/02 04:14:38;;;;;;;12.97;4.40;;;7.60;99.90;;;;;;4860840;29;20254;-85
2022/11/02 04:20:08;;;;;;;5.73;4.20;;;7.50;99.90;;;;;;4854484;29;20195;-85
2022/11/02 04:25:19;;;;;;;4.83;4.10;;;7.40;99.90;;;;;;4860353;29;20263;-85
2022/11/02 04:28:08;;;;;;;6.57;3.93;;;7.40;99.90;;;;;;4859586;29;20168;-85
2022/11/02 04:30:48;;;;;;;6.00;3.83;;;7.30;99.90;;;;;;4847284;29;20184;-85
2022/11/02 04:33:33;;;;;;;5.70;4.00;;;7.30;99.90;;;;;;4845027;29;20208;-85
2022/11/02 04:36:09;;;;;;;6.37;3.73;;;7.30;99.90;;;;;;4860619;29;20188;-85
2022/11/02 04:38:40;;;;;;;6.63;3.97;;;7.20;99.90;;;;;;4844801;29;20196;-85
2022/11/02 04:44:13;;;;;;;4.93;3.70;;;7.40;99.90;;;;;;4860503;29;20211;-85
2022/11/02 04:46:41;;;;;;;6.33;3.70;;;7.40;99.90;;;;;;4845041;29;20274;-86
2022/11/02 04:49:09;;;;;;;5.10;3.20;;;7.40;99.90;;;;;;4860229;29;20193;-85
2022/11/02 04:51:38;;;;;;;4.63;3.10;;;7.50;99.90;;;;;;4845104;29;20252;-85
2022/11/02 04:54:05;;;;;;;5.00;3.50;;;7.50;99.90;;;;;;4844793;29;20224;-85
2022/11/02 04:56:32;;;;;;;5.40;4.03;;;7.50;99.90;;;;;;4854212;29;20271;-85
2022/11/02 04:58:59;;;;;;;4.17;3.30;;;7.50;99.90;;;;;;4878824;29;20183;-85
2022/11/02 05:01:28;;;;;;;5.17;3.13;;;7.50;99.90;;;;;;4865963;29;20255;-85
2022/11/02 05:03:55;;;;;;;5.83;3.50;;;7.50;99.90;;;;;;4868925;29;20203;-85
2022/11/02 05:06:23;;;;;;;6.43;4.00;;;7.50;99.90;;;;;;4860556;29;20201;-85
2022/11/02 05:08:51;;;;;;;7.13;4.30;;;7.50;99.90;;;;;;4860501;29;20214;-85
2022/11/02 05:11:17;;;;;;;5.77;3.67;;;7.50;99.90;;;;;;4860364;29;20240;-85
2022/11/02 05:13:44;;;;;;;4.73;3.83;;;7.50;99.90;;;;;;4859322;29;20208;-85
2022/11/02 05:16:14;;;;;;;6.23;3.90;;;7.40;99.90;;;;;;4859298;29;20309;-85
2022/11/02 05:18:41;;;;;;;5.20;4.07;;;7.50;99.90;;;;;;4859665;29;20187;-85
2022/11/02 05:21:13;;;;;;;7.97;4.30;;;7.40;99.90;;;;;;4860006;29;20236;-85
2022/11/02 05:23:39;;;;;;;4.17;3.77;;;7.40;99.90;;;;;;4859761;29;20247;-85
2022/11/02 05:26:10;;;;;;;4.77;3.27;;;7.40;99.90;;;;;;4844139;29;20219;-85
2022/11/02 05:28:39;;;;;;;5.63;4.00;;;7.40;99.90;;;;;;4859634;29;20296;-85
2022/11/02 05:31:05;;;;;;;5.20;3.60;;;7.40;99.90;;;;;;4859938;29;20642;-85
2022/11/02 05:33:34;;;;;;;7.30;3.97;;;7.20;99.90;;;;;;4844603;29;20223;-85
2022/11/02 05:36:06;;;;;;;5.80;4.00;;;7.20;99.90;;;;;;4857295;29;20208;-85
2022/11/02 05:38:38;;;;;;;5.77;3.47;;;7.10;99.90;;;;;;4868915;29;20232;-85
2022/11/02 05:41:06;;;;;;;5.87;4.30;;;7.10;99.90;;;;;;4859191;29;20199;-85
2022/11/02 05:43:36;;;;;;;6.57;4.20;;;7.00;99.90;;;;;;4844640;29;20252;-85
2022/11/02 05:46:04;;;;;;;4.07;3.57;;;7.10;99.90;;;;;;4859307;29;20185;-85
2022/11/02 05:48:31;;;;;;;4.80;3.73;;;7.10;99.90;;;;;;4859424;29;20205;-85
2022/11/02 05:50:59;;;;;;;6.30;4.00;;;7.10;99.90;;;;;;4844014;29;20187;-85
2022/11/02 05:53:26;;;;;;;5.50;3.83;;;7.10;99.90;;;;;;4843943;29;20224;-85
2022/11/02 05:55:56;;;;;;;5.00;3.27;;;7.10;99.90;;;;;;4843968;29;20660;-85
2022/11/02 05:58:22;;;;;;;5.87;3.70;;;7.00;99.90;;;;;;4843679;29;20183;-85
2022/11/02 06:00:48;;;;;;;5.00;3.60;;;7.10;99.90;;;;;;4859192;29;20194;-85
2022/11/02 06:03:14;;;;;;;6.83;4.17;;;7.10;99.90;;;;;;4859236;29;20302;-85
2022/11/02 06:05:39;;;;;;;4.57;3.50;;;7.20;99.90;;;;;;4859514;29;20207;-85
2022/11/02 06:08:10;;;;;;;6.23;4.27;;;7.10;99.90;;;;;;4858923;29;20230;-85
2022/11/02 06:10:37;;;;;;;6.43;3.93;;;7.10;99.90;;;;;;4859355;29;20183;-86
2022/11/02 06:13:03;;;;;;;7.10;3.77;;;7.00;99.90;;;;;;4854809;29;20238;-85
2022/11/02 06:15:33;;;;;;;6.47;4.03;;;7.00;99.90;;;;;;4859249;29;20199;-86
2022/11/02 06:18:13;;;;;;;4.83;4.27;;;7.00;99.90;;;;;;4842893;29;20188;-86
2022/11/02 06:20:52;;;;;;;6.37;3.30;;;6.90;99.90;;;;;;4859144;29;20180;-86
2022/11/02 06:23:34;;;;;;;5.27;4.23;;;6.80;99.90;;;;;;4859415;29;20219;-86
2022/11/02 06:26:01;;;;;;;6.57;4.60;;;6.70;99.90;;;;;;4858755;29;20203;-85
2022/11/02 06:28:29;;;;;;;8.47;3.77;;;6.70;99.90;;;;;;4858660;29;20195;-86
2022/11/02 06:30:57;;;;;;;8.23;4.13;;;6.60;99.90;;;;;;4859082;29;20210;-86
2022/11/02 06:33:23;;;;;;;5.27;3.93;;;6.50;99.90;;;;;;4890058;29;20632;-85
2022/11/02 06:35:53;;;;;;;7.60;4.10;;;6.60;99.90;;;;;;4859234;29;20192;-85
2022/11/02 06:38:19;;;;;;;9.27;4.47;;;6.60;99.90;;;;;;4858744;29;20188;-85
2022/11/02 06:40:56;;;;;;;7.87;4.07;;;6.70;99.90;;;;;;4857625;29;20203;-85
2022/11/02 06:43:23;;;;;;;6.73;3.67;;;6.80;99.90;;;;;;4855917;29;20243;-86
2022/11/02 06:45:48;;;;;;;5.80;4.10;;;6.80;99.90;;;;;;4859496;29;20253;-83
2022/11/02 06:48:15;;;;;;;6.43;4.17;;;6.80;99.90;;;;;;4862119;29;20183;-80
2022/11/02 06:50:41;;;;;;;5.90;3.80;;;6.80;99.90;;;;;;4847814;29;20254;-80
2022/11/02 06:53:07;;;;;;;6.93;3.97;;;6.90;99.90;;;;;;4862767;29;20259;-85
2022/11/02 06:55:33;;;;;;;5.57;3.70;;;7.00;99.90;;;;;;4862509;29;20200;-85
2022/11/02 06:57:59;;;;;;;5.90;3.87;;;7.20;99.90;;;;;;4847494;29;20188;-85
2022/11/02 07:00:24;;;;;;;6.03;3.53;;;7.30;99.90;;;;;;4846973;29;20188;-85
2022/11/02 07:03:02;;;;;;;7.43;3.47;;;7.30;99.90;;;;;;4846854;29;20184;-85
2022/11/02 07:05:28;;;;;;;5.20;4.10;;;7.40;99.90;;;;;;4855090;29;20188;-85
2022/11/02 07:07:55;;;;;;;7.57;4.33;;;7.50;99.90;;;;;;4861845;29;20192;-85
2022/11/02 07:10:20;;;;;;;8.93;4.90;;;7.60;99.90;;;;;;4846915;29;20279;-85
2022/11/02 07:12:46;;;;;;;7.43;4.67;;;7.60;99.90;;;;;;4862212;29;20276;-85
2022/11/02 07:15:12;;;;;;;6.23;4.47;;;7.70;99.90;;;;;;4862296;29;20184;-85
2022/11/02 07:17:39;;;;;;;5.43;3.90;;;7.70;99.90;;;;;;4862131;29;20196;-85
2022/11/02 07:20:09;;;;;;;5.90;3.47;;;7.70;99.90;;;;;;4861903;29;20188;-85
2022/11/02 07:22:35;;;;;;;5.53;3.83;;;7.60;99.90;;;;;;4861624;29;20224;-85
2022/11/02 07:25:01;;;;;;;6.57;3.87;;;7.60;99.90;;;;;;4861786;29;20195;-85
2022/11/02 07:27:27;;;;;;;5.80;3.40;;;7.70;99.90;;;;;;4861752;29;20187;-85
2022/11/02 07:29:53;;;;;;;7.80;3.67;;;7.80;99.90;;;;;;4861991;29;20207;-85
2022/11/02 07:32:19;;;;;;;7.37;4.10;;;7.90;99.90;;;;;;4861856;29;20189;-85
2022/11/02 07:34:45;;;;;;;5.03;3.47;;;8.00;99.90;;;;;;4860827;29;20227;-85
2022/11/02 07:37:10;;;;;;;5.50;3.57;;;8.00;99.90;;;;;;4860948;29;20172;-85
2022/11/02 07:39:36;;;;;;;6.37;3.77;;;8.00;99.90;;;;;;4861417;29;20192;-85
2022/11/02 07:42:02;;;;;;;5.20;3.40;;;8.00;99.90;;;;;;4861722;29;20185;-85
2022/11/02 07:44:29;;;;;;;5.67;3.07;;;8.10;99.90;;;;;;4861984;29;20545;-85
2022/11/02 07:46:55;;;;;;;7.37;3.20;;;8.20;99.90;;;;;;4860958;29;20285;-85
2022/11/02 07:49:21;;;;;;;6.13;3.40;;;8.30;99.90;;;;;;4861832;29;20220;-85
2022/11/02 07:51:47;;;;;;;6.40;3.57;;;8.40;99.90;;;;;;4861170;29;20196;-85
2022/11/02 07:54:13;;;;;;;5.27;4.07;;;8.50;99.90;;;;;;4885270;29;20221;-85
2022/11/02 07:56:39;;;;;;;7.50;5.10;;;8.60;99.90;;;;;;4861270;29;20177;-85
2022/11/02 07:59:08;;;;;;;6.83;4.90;;;8.60;99.90;;;;;;4861243;29;20197;-85
2022/11/02 08:01:34;;;;;;;5.77;4.60;;;8.70;99.90;;;;;;4861106;29;20199;-85
2022/11/02 08:04:00;;;;;;;8.33;4.63;;;8.70;99.90;;;;;;4862187;29;20255;-86
2022/11/02 08:06:34;;;;;;;8.43;4.53;;;8.80;99.90;;;;;;4876495;29;20197;-86
2022/11/02 08:09:01;;;;;;;6.53;4.77;;;8.90;99.90;;;;;;4827723;29;20182;-86
2022/11/02 08:11:32;;;;;;;7.33;4.23;;;9.00;99.90;;;;;;4839198;29;20261;-86
2022/11/02 08:13:59;;;;;;;4.97;4.13;;;9.10;99.90;;;;;;4860843;29;20212;-86
2022/11/02 08:16:24;;;;;;;9.50;4.60;;;9.30;99.90;;;;;;4861523;29;20682;-85
2022/11/02 08:18:50;;;;;;;6.17;4.17;;;9.50;99.90;;;;;;4862807;29;20185;-85
2022/11/02 08:21:16;;;;;;;7.93;4.70;;;9.60;99.90;;;;;;4892233;29;20208;-85
2022/11/02 08:23:42;;;;;;;7.13;3.87;;;9.70;99.90;;;;;;4860747;29;20204;-85
2022/11/02 08:26:09;;;;;;;5.43;3.50;;;9.90;99.90;;;;;;4860509;29;20216;-85
2022/11/02 08:28:38;;;;;;;5.50;3.03;;;10.00;99.90;;;;;;4860580;29;20271;-85
2022/11/02 08:31:08;;;;;;;9.50;3.10;;;10.20;99.90;;;;;;4860719;29;20193;-85
2022/11/02 08:33:34;;;;;;;5.13;2.90;;;10.30;99.90;;;;;;4860657;29;20244;-86
2022/11/02 08:36:05;;;;;;;8.37;2.90;;;10.40;99.90;;;;;;4860536;29;20215;-88
2022/11/02 08:38:33;;;;;;;7.60;2.43;;;10.50;99.90;;;;;;4861027;29;20188;-85
2022/11/02 08:40:59;;;;;;;6.23;2.40;;;10.60;99.90;;;;;;4861092;29;20192;-85
2022/11/02 08:43:25;;;;;;;7.07;2.93;;;10.70;99.90;;;;;;4860737;29;20227;-85
2022/11/02 08:45:51;;;;;;;5.80;2.80;;;10.80;99.90;;;;;;4860528;29;20650;-86
2022/11/02 08:48:17;;;;;;;9.27;3.40;;;10.90;99.90;;;;;;4860241;29;20228;-83
2022/11/02 08:50:48;;;;;;;5.77;3.13;;;11.00;99.90;;;;;;4876022;29;20227;-87
2022/11/02 08:53:14;;;;;;;5.27;2.87;;;11.00;99.90;;;;;;4855415;29;20216;-84
2022/11/02 08:55:39;;;;;;;5.37;2.83;;;11.10;99.90;;;;;;4869901;29;20188;-86
2022/11/02 08:58:05;;;;;;;5.67;2.90;;;11.20;99.90;;;;;;4860090;29;20184;-86
2022/11/02 09:00:33;;;;;;;7.93;3.07;;;11.30;99.90;;;;;;4859646;29;20193;-85
2022/11/02 09:03:04;;;;;;;8.00;2.80;;;11.40;99.90;;;;;;4860105;29;20203;-87
2022/11/02 09:05:33;;;;;;;7.60;3.00;;;11.50;99.90;;;;;;4860216;29;20216;-89
2022/11/02 09:08:02;;;;;;;9.17;3.10;;;11.60;99.90;;;;;;4859677;29;20640;-86
2022/11/02 09:10:30;;;;;;;6.40;2.77;;;11.70;99.90;;;;;;4859970;29;20187;-86
2022/11/02 09:12:58;;;;;;;8.10;3.00;;;11.80;99.90;;;;;;4859366;29;20216;-86
2022/11/02 09:15:24;;;;;;;7.97;2.70;;;11.90;99.90;;;;;;4859695;29;20195;-86
2022/11/02 09:17:50;;;;;;;6.23;2.20;;;12.10;99.90;;;;;;4859608;29;20192;-85
2022/11/02 09:20:18;;;;;;;7.67;2.40;;;12.30;99.90;;;;;;4859566;29;20185;-85
2022/11/02 09:22:44;;;;;;;4.37;2.20;;;12.50;99.90;;;;;;4859870;29;20177;-85
2022/11/02 09:25:11;;;;;;;6.20;2.23;;;12.60;99.90;;;;;;4860002;29;20259;-86
2022/11/02 09:27:37;;;;;;;6.27;2.60;;;12.80;99.90;;;;;;4859740;29;20259;-86
2022/11/02 09:30:04;;;;;;;3.83;2.27;;;12.90;99.90;;;;;;4859887;29;20203;-85
2022/11/02 09:32:32;;;;;;;8.13;2.83;;;13.00;99.90;;;;;;4859622;29;20188;-85
2022/11/02 09:35:10;;;;;;;9.23;2.57;;;13.10;99.90;;;;;;4859540;29;20208;-85
2022/11/02 09:37:36;;;;;;;5.63;2.30;;;13.20;99.90;;;;;;4860393;29;20165;-85
2022/11/02 09:40:04;;;;;;;5.50;2.77;;;13.20;99.90;;;;;;4859481;29;20282;-85
2022/11/02 09:43:17;;;;;;;6.27;2.47;;;13.30;99.90;;;;;;4859723;29;20237;-86
2022/11/02 09:45:46;;;;;;;6.47;1.90;;;13.40;99.90;;;;;;4859068;29;20279;-85
2022/11/02 09:48:18;;;;;;;4.10;1.60;;;13.40;99.90;;;;;;4859173;29;20196;-85
2022/11/02 09:50:50;;;;;;;5.13;1.87;;;13.40;99.90;;;;;;4859434;29;20173;-86
2022/11/02 09:53:25;;;;;;;5.93;1.80;;;13.40;99.90;;;;;;4859185;29;20221;-86
2022/11/02 09:55:54;;;;;;;5.23;1.97;;;13.40;99.90;;;;;;4859294;29;20225;-85
2022/11/02 09:58:28;;;;;;;5.73;1.77;;;13.40;99.90;;;;;;4858929;29;20189;-85
2022/11/02 10:00:58;;;;;;;5.67;2.17;;;13.50;99.90;;;;;;4859286;29;20188;-85
2022/11/02 10:04:09;;;;;;;7.93;2.20;;;13.50;99.90;;;;;;4859485;29;20204;-86
2022/11/02 10:06:40;;;;;;;4.60;1.80;;;13.60;99.90;;;;;;4859247;29;20188;-85
2022/11/02 10:09:06;;;;;;;5.43;1.57;;;13.60;99.90;;;;;;4859189;29;20188;-85
2022/11/02 10:12:01;;;;;;;8.70;1.90;;;13.60;99.90;;;;;;4858952;29;20185;-85
2022/11/02 10:14:34;;;;;;;8.10;2.00;;;13.60;99.90;;;;;;4858924;29;20314;-86
2022/11/02 10:17:16;;;;;;;5.40;2.50;;;13.70;99.90;;;;;;4859035;29;20228;-86
2022/11/02 10:19:49;;;;;;;6.20;2.20;;;13.70;99.90;;;;;;4859655;29;20263;-86
2022/11/02 10:22:21;;;;;;;4.87;1.40;;;13.80;99.90;;;;;;4860390;29;20184;-85
2022/11/02 10:24:49;;;;;;;5.33;1.70;;;13.90;99.90;;;;;;4861873;29;20204;-85
2022/11/02 10:27:28;;;;;;;6.50;1.70;;;13.90;99.90;;;;;;4848422;29;20180;-85
2022/11/02 10:30:06;;;;;;;7.53;2.00;;;13.90;99.90;;;;;;4848760;29;20188;-85
2022/11/02 10:32:35;;;;;;;4.47;1.60;;;13.90;99.90;;;;;;4848159;29;20186;-85
2022/11/02 10:35:06;;;;;;;8.27;1.53;;;13.90;99.90;;;;;;4849312;29;20265;-84
2022/11/02 10:38:00;;;;;;;4.93;1.70;;;13.90;99.90;;;;;;4863913;29;20202;-85
2022/11/02 10:40:47;;;;;;;5.20;1.53;;;13.90;99.90;;;;;;4845614;29;20204;-85
2022/11/02 10:43:45;;;;;;;6.50;1.67;;;14.00;99.90;;;;;;4848358;29;20219;-85
2022/11/02 10:46:32;;;;;;;8.63;2.17;;;14.00;99.90;;;;;;4861260;29;20245;-85
2022/11/02 10:49:12;;;;;;;6.67;1.70;;;14.10;99.90;;;;;;4865608;29;20214;-84
2022/11/02 10:51:39;;;;;;;8.00;3.10;;;14.10;99.90;;;;;;4866081;29;20181;-86
2022/11/02 10:54:12;;;;;;;5.87;1.87;;;14.20;99.90;;;;;;4862289;29;20213;-85
2022/11/02 10:56:40;;;;;;;5.23;1.87;;;14.20;99.90;;;;;;4847001;29;20188;-85
2022/11/02 10:59:22;;;;;;;7.80;1.53;;;14.20;99.90;;;;;;4862275;29;20184;-85
2022/11/02 11:02:03;;;;;;;5.83;1.57;;;14.30;99.90;;;;;;4847114;29;20220;-85
2022/11/02 11:04:31;;;;;;;3.93;1.50;;;14.30;99.90;;;;;;4862009;29;20689;-85
2022/11/02 11:07:03;;;;;;;4.23;1.37;;;14.30;99.90;;;;;;4862166;29;20187;-85
2022/11/02 11:09:45;;;;;;;9.10;1.53;;;14.30;99.90;;;;;;4862486;29;20177;-85
2022/11/02 11:12:19;;;;;;;3.77;1.30;;;14.30;99.90;;;;;;4860935;29;20271;-85
2022/11/02 11:14:48;;;;;;;5.53;1.30;;;14.40;99.90;;;;;;4862094;29;20219;-85
2022/11/02 11:17:18;;;;;;;4.63;1.60;;;14.40;99.90;;;;;;4861658;29;20188;-85
2022/11/02 11:19:51;;;;;;;4.17;1.20;;;14.40;99.90;;;;;;4846760;29;20230;-85
2022/11/02 11:22:43;;;;;;;4.23;1.23;;;14.40;99.90;;;;;;4847252;29;20181;-85
2022/11/02 11:25:20;;;;;;;2.87;0.90;;;14.40;99.90;;;;;;4845305;29;20188;-85
2022/11/02 11:27:57;;;;;;;7.67;1.67;;;14.40;99.90;;;;;;4847023;29;20191;-85
2022/11/02 11:30:28;;;;;;;5.00;1.30;;;14.50;99.90;;;;;;4861944;29;20179;-85
2022/11/02 11:33:02;;;;;;;4.20;1.10;;;14.50;99.90;;;;;;4861700;29;20212;-85
2022/11/02 11:35:36;;;;;;;4.37;1.27;;;14.60;99.90;;;;;;4861758;29;20252;-85
2022/11/02 11:38:13;;;;;;;5.50;1.47;;;14.60;99.90;;;;;;4861793;29;20180;-85
2022/11/02 11:40:44;;;;;;;7.20;1.40;;;14.60;99.90;;;;;;4861914;29;20204;-85
2022/11/02 11:43:13;;;;;;;2.80;1.23;;;14.60;99.90;;;;;;4862252;29;20228;-85
2022/11/02 11:45:52;;;;;;;5.80;1.27;;;14.60;99.90;;;;;;4861721;29;20195;-85
2022/11/02 11:48:23;;;;;;;5.10;1.60;;;14.60;99.90;;;;;;4861770;29;20188;-85
2022/11/02 11:50:50;;;;;;;4.60;1.40;;;14.60;99.90;;;;;;4862281;29;20185;-85
2022/11/02 11:53:21;;;;;;;6.20;1.20;;;14.50;99.90;;;;;;4861749;29;20223;-85
2022/11/02 11:55:59;;;;;;;4.10;1.57;;;14.50;99.90;;;;;;4862097;29;20184;-85
2022/11/02 11:58:30;;;;;;;2.87;1.30;;;14.60;99.90;;;;;;4861923;29;20169;-85
2022/11/02 12:01:10;;;;;;;5.63;1.50;;;14.80;99.90;;;;;;4861951;29;20193;-85
2022/11/02 12:03:51;;;;;;;5.03;1.50;;;15.00;99.90;;;;;;4861470;29;20212;-85
2022/11/02 12:06:47;;;;;;;7.20;1.60;;;15.30;99.90;;;;;;4843979;29;20204;-85
2022/11/02 12:09:13;;;;;;;4.27;1.67;;;15.50;99.90;;;;;;4843394;29;20196;-86
2022/11/02 12:11:46;;;;;;;5.27;1.50;;;15.60;99.90;;;;;;4842961;29;20186;-85
2022/11/02 12:14:33;;;;;;;3.30;1.23;;;15.70;99.90;;;;;;4842701;29;20221;-85
2022/11/02 12:17:07;;;;;;;4.80;1.60;;;15.80;99.90;;;;;;4842611;29;20635;-85
2022/11/02 12:19:50;;;;;;;4.30;1.07;;;15.90;99.90;;;;;;4843397;29;20185;-85
2022/11/02 12:22:22;;;;;;;3.73;1.60;;;16.00;99.90;;;;;;4857349;29;20211;-85
2022/11/02 12:25:07;;;;;;;3.53;1.27;;;16.10;99.90;;;;;;4847281;29;20257;-85
2022/11/02 12:27:56;;;;;;;3.37;1.50;;;16.10;99.90;;;;;;4842467;29;20185;-85
2022/11/02 12:30:29;;;;;;;4.77;1.50;;;16.10;99.90;;;;;;4827219;29;20280;-85
2022/11/02 12:33:05;;;;;;;3.17;1.20;;;16.10;99.90;;;;;;4843590;29;20209;-85
2022/11/02 12:35:42;;;;;;;7.17;1.50;;;16.20;99.90;;;;;;4860632;29;20204;-85
2022/11/02 12:38:14;;;;;;;4.97;1.43;;;16.40;99.90;;;;;;4860498;29;20189;-85
2022/11/02 12:41:02;;;;;;;6.50;1.52;;;16.50;99.90;;;;;;4860749;29;20229;-85
2022/11/02 12:43:28;;;;;;;3.22;1.20;;;16.60;99.90;;;;;;4860805;29;20212;-85
2022/11/02 12:45:57;;;;;;;4.70;1.50;;;16.60;99.90;;;;;;4860903;29;20240;-85
2022/11/02 12:48:48;;;;;;;3.80;1.33;;;16.80;99.90;;;;;;4859401;29;20662;-86
2022/11/02 12:51:21;;;;;;;9.48;1.88;;;16.90;99.90;;;;;;4850391;29;20201;-85
2022/11/02 12:53:57;;;;;;;5.70;1.67;;;17.00;99.90;;;;;;4860650;29;20303;-85
2022/11/02 12:56:45;;;;;;;6.68;1.60;;;17.00;99.90;;;;;;4860504;29;20173;-86
2022/11/02 12:59:33;;;;;;;5.55;1.50;;;17.00;99.90;;;;;;4860744;29;20173;-85
2022/11/02 13:02:19;;;;;;;4.43;1.40;;;17.10;99.90;;;;;;4860819;29;20169;-86
2022/11/02 13:04:55;;;;;;;5.35;1.63;;;17.20;99.90;;;;;;4860045;29;20231;-85
2022/11/02 13:07:33;;;;;;;2.85;1.15;;;17.30;99.90;;;;;;4860222;29;20231;-85
2022/11/02 13:10:26;;;;;;;4.78;1.40;;;17.20;99.90;;;;;;5084918;28;20540;-41
2022/11/02 13:12:56;;;;;;;5.90;1.58;;;17.20;99.90;;;;;;5076195;28;20244;-41
2022/11/02 13:15:24;;;;;;;4.53;1.77;;;17.10;99.90;;;;;;5054672;28;20189;-40
2022/11/02 13:17:52;;;;;;;4.57;1.40;;;16.90;99.90;;;;;;5046334;28;20268;-40
2022/11/02 13:20:30;;;;;;;4.78;1.20;;;16.70;99.90;;;;;;5051291;28;20205;-41
2022/11/02 13:23:04;;;;;;;4.50;1.30;;;16.60;99.90;;;;;;5040259;28;20677;-42
2022/11/02 13:25:42;;;;;;;6.13;1.60;;;16.30;99.90;;;;;;5044279;28;20173;-41
2022/11/02 13:28:15;;;;;;;7.20;1.92;;;16.30;99.90;;;;;;5047186;28;20204;-41